Time;durP1;ratioP1;P1;durP2;ratioP2;P2;SDS_P1;SDS_P2;PMS_P1;PMS_P2;Temp;Humidity;BMP_temperature;BMP_pressure;BME280_temperature;BME280_humidity;BME280_pressure;Samples;Min_cycle;Max_cycle;Signal;HPM_P1;HPM_P2
2022/11/30 07:39:16;;;;;;;7.25;3.83;;;;;;;-2.62;72.82;101623.17;1847854;75;29141;-72
2022/11/30 07:41:42;;;;;;;6.97;3.35;;;;;;;-2.04;71.55;101635.74;1851674;75;21796;-72
2022/11/30 07:44:10;;;;;;;9.05;4.30;;;;;;;-1.90;71.19;101636.95;1847075;75;21904;-70
2022/11/30 07:46:37;;;;;;;7.25;3.92;;;;;;;-1.80;70.93;101634.70;1838068;77;21181;-74
2022/11/30 07:49:05;;;;;;;10.95;4.03;;;;;;;-1.72;70.44;101625.58;1846092;77;21020;-72
2022/11/30 07:51:32;;;;;;;7.42;3.95;;;;;;;-1.68;69.90;101628.55;1848317;75;21105;-74
2022/11/30 07:53:59;;;;;;;10.45;4.08;;;;;;;-1.63;69.77;101625.50;1856769;76;21134;-73
2022/11/30 07:56:26;;;;;;;8.13;4.50;;;;;;;-1.56;69.49;101627.14;1858555;75;21543;-74
2022/11/30 07:58:57;;;;;;;10.85;5.08;;;;;;;-1.49;69.37;101626.22;1877777;75;20922;-72
2022/11/30 08:01:26;;;;;;;6.12;3.70;;;;;;;-1.40;69.38;101623.97;1844088;77;20992;-71
2022/11/30 08:03:53;;;;;;;7.05;3.95;;;;;;;-1.30;69.19;101622.56;1851486;77;20985;-75
2022/11/30 08:06:24;;;;;;;8.45;4.10;;;;;;;-1.23;68.92;101630.70;1853729;75;21539;-71
2022/11/30 08:08:52;;;;;;;10.20;4.47;;;;;;;-1.16;68.77;101627.58;1821476;78;21802;-71
2022/11/30 08:11:25;;;;;;;9.20;3.30;;;;;;;-1.12;68.42;101624.54;1819107;78;20991;-72
2022/11/30 08:13:52;;;;;;;7.78;3.40;;;;;;;-1.09;68.06;101625.34;1812919;78;29620;-72
2022/11/30 08:16:21;;;;;;;6.78;3.67;;;;;;;-1.10;67.88;101627.53;1783277;78;21455;-72
2022/11/30 08:18:48;;;;;;;6.42;3.58;;;;;;;-1.08;67.74;101621.02;1822168;77;21543;-71
2022/11/30 08:21:18;;;;;;;8.30;3.87;;;;;;;-1.06;67.62;101622.75;1823981;77;22452;-71
2022/11/30 08:23:51;;;;;;;7.30;3.75;;;;;;;-1.04;67.47;101626.61;1826275;77;21416;-73
2022/11/30 08:26:21;;;;;;;8.70;3.83;;;;;;;-1.03;67.27;101627.03;1821305;77;21126;-70
2022/11/30 08:28:49;;;;;;;10.68;4.10;;;;;;;-1.03;67.07;101620.11;1823687;77;20986;-69
2022/11/30 08:31:23;;;;;;;8.73;3.80;;;;;;;-1.01;67.06;101607.97;1820447;77;21398;-69
2022/11/30 08:33:51;;;;;;;7.72;3.55;;;;;;;-0.98;66.85;101610.96;1782444;80;23113;-69
2022/11/30 08:36:20;;;;;;;8.88;4.22;;;;;;;-0.93;66.72;101610.48;1789416;77;21176;-70
2022/11/30 08:38:47;;;;;;;8.55;3.67;;;;;;;-0.90;66.42;101610.44;1774527;79;21093;-73
2022/11/30 08:41:17;;;;;;;9.90;5.65;;;;;;;-0.86;66.51;101604.34;1792064;79;20978;-73
2022/11/30 08:43:44;;;;;;;12.50;5.12;;;;;;;-0.77;66.55;101596.45;1788236;78;21071;-71
2022/11/30 08:46:13;;;;;;;11.53;6.00;;;;;;;-0.68;66.46;101602.78;1791415;79;21776;-77
2022/11/30 08:48:40;;;;;;;9.30;5.03;;;;;;;-0.60;66.20;101601.39;1769409;79;21015;-79
2022/11/30 08:51:09;;;;;;;8.08;3.83;;;;;;;-0.53;66.03;101598.28;1795798;78;21194;-77
2022/11/30 08:53:36;;;;;;;5.78;3.25;;;;;;;-0.49;65.79;101595.60;1795409;79;21019;-77
2022/11/30 08:56:07;;;;;;;8.73;4.10;;;;;;;-0.44;65.68;101591.66;1797474;79;20947;-75
2022/11/30 08:58:36;;;;;;;7.08;4.03;;;;;;;-0.41;65.44;101587.27;1796115;79;21931;-75
2022/11/30 09:01:08;;;;;;;8.08;4.20;;;;;;;-0.35;65.29;101598.02;1789816;78;21547;-76
2022/11/30 09:03:36;;;;;;;7.85;3.58;;;;;;;-0.35;65.02;101586.33;1794486;79;20991;-74
2022/11/30 09:06:12;;;;;;;7.20;3.50;;;;;;;-0.34;64.97;101590.20;1787754;79;21427;-74
2022/11/30 09:08:40;;;;;;;9.80;4.12;;;;;;;-0.39;64.29;101584.20;1794081;79;21440;-75
2022/11/30 09:11:11;;;;;;;18.50;5.37;;;;;;;-0.51;63.78;101589.58;1797232;79;21641;-74
2022/11/30 09:13:40;;;;;;;10.98;4.47;;;;;;;-0.60;63.92;101597.05;1797947;79;21157;-74
2022/11/30 09:16:07;;;;;;;14.13;3.77;;;;;;;-0.55;64.16;101596.15;1795505;79;20983;-75
2022/11/30 09:18:34;;;;;;;9.53;3.33;;;;;;;-0.57;63.74;101594.02;1795774;79;21063;-74
2022/11/30 09:21:02;;;;;;;6.85;3.10;;;;;;;-0.64;63.25;101588.91;1797959;78;21038;-74
2022/11/30 09:23:29;;;;;;;9.45;3.42;;;;;;;-0.70;63.34;101602.39;1797435;79;21823;-75
2022/11/30 09:26:00;;;;;;;6.47;3.50;;;;;;;-0.75;63.55;101601.17;1797210;79;20935;-74
2022/11/30 09:28:29;;;;;;;8.83;3.60;;;;;;;-0.72;63.62;101592.05;1797093;78;20951;-74
2022/11/30 09:31:07;;;;;;;8.40;3.72;;;;;;;-0.69;63.61;101585.50;1796111;79;21501;-74
2022/11/30 09:33:34;;;;;;;10.75;4.08;;;;;;;-0.64;63.74;101587.61;1748801;80;20946;-75
2022/11/30 09:36:03;;;;;;;8.05;3.90;;;;;;;-0.59;63.75;101587.53;1775399;78;21739;-73
2022/11/30 09:38:30;;;;;;;6.67;3.75;;;;;;;-0.56;63.88;101578.87;1792669;78;21034;-74
2022/11/30 09:40:58;;;;;;;10.28;3.98;;;;;;;-0.51;63.90;101567.52;1785600;80;20987;-74
2022/11/30 09:43:39;;;;;;;8.65;4.00;;;;;;;-0.46;63.86;101571.36;1780627;80;21413;-76
2022/11/30 09:46:08;;;;;;;10.48;4.00;;;;;;;-0.40;63.81;101566.92;1754411;80;20963;-75
2022/11/30 09:49:01;;;;;;;10.08;3.40;;;;;;;-0.33;63.57;101569.84;1769908;80;22559;-74
2022/11/30 09:51:46;;;;;;;9.38;3.50;;;;;;;-0.32;63.38;101564.21;1786348;79;21041;-74
2022/11/30 09:54:17;;;;;;;8.38;3.60;;;;;;;-0.36;63.26;101575.09;1787471;79;21473;-74
2022/11/30 09:56:43;;;;;;;9.73;3.10;;;;;;;-0.35;63.18;101565.56;1786707;80;21382;-73
2022/11/30 09:59:25;;;;;;;6.97;3.20;;;;;;;-0.37;62.82;101562.14;1786412;80;20988;-72
2022/11/30 10:01:52;;;;;;;6.85;3.20;;;;;;;-0.41;62.70;101560.45;1772001;79;21797;-75
2022/11/30 10:04:25;;;;;;;9.20;3.90;;;;;;;-0.45;62.70;101556.20;1785508;80;21071;-73
2022/11/30 10:07:26;;;;;;;9.40;3.55;;;;;;;-0.42;62.76;101570.42;1786452;80;21015;-74
2022/11/30 10:09:58;;;;;;;8.50;3.55;;;;;;;-0.38;63.00;101553.50;1786542;79;21051;-72
2022/11/30 10:12:49;;;;;;;5.87;3.15;;;;;;;-0.29;63.08;101560.27;1786670;79;20944;-74
2022/11/30 10:15:49;;;;;;;7.95;3.95;;;;;;;-0.21;62.84;101564.04;1785955;79;21953;-74
2022/11/30 10:18:51;;;;;;;5.65;3.05;;;;;;;-0.17;62.88;101560.09;1775704;79;20951;-73
2022/11/30 10:21:29;;;;;;;5.80;3.20;;;;;;;-0.09;62.64;101564.72;1753675;81;21412;-73
2022/11/30 10:24:19;;;;;;;6.60;3.22;;;;;;;-0.06;62.46;101556.87;1777507;80;20947;-73
2022/11/30 10:26:55;;;;;;;9.60;3.37;;;;;;;-0.04;62.19;101570.68;1760004;80;20944;-73
2022/11/30 10:29:34;;;;;;;7.28;3.40;;;;;;;-0.05;61.99;101559.88;1786289;79;21979;-73
2022/11/30 10:32:06;;;;;;;12.45;3.67;;;;;;;-0.03;62.04;101565.05;1786099;80;21488;-73
2022/11/30 10:34:34;;;;;;;8.58;3.50;;;;;;;0.01;62.04;101558.93;1785190;79;21410;-72
2022/11/30 10:37:30;;;;;;;7.25;3.25;;;;;;;0.04;61.88;101558.87;1779762;79;21023;-74
2022/11/30 10:40:04;;;;;;;9.58;3.37;;;;;;;0.07;61.89;101554.05;1787607;79;21354;-73
2022/11/30 10:42:51;;;;;;;10.58;3.90;;;;;;;0.07;61.46;101548.42;1823323;78;21941;-74
2022/11/30 10:45:20;;;;;;;6.60;3.05;;;;;;;0.10;61.38;101551.42;1812932;78;20935;-74
2022/11/30 10:48:01;;;;;;;6.05;3.58;;;;;;;0.13;61.23;101547.47;1823213;78;20985;-73
2022/11/30 10:50:29;;;;;;;8.48;3.33;;;;;;;0.16;61.23;101534.41;1823513;78;20990;-74
2022/11/30 10:52:58;;;;;;;11.73;3.87;;;;;;;0.14;60.58;101540.94;1824140;78;20952;-74
2022/11/30 10:55:30;;;;;;;6.30;3.35;;;;;;;0.08;60.46;101542.33;1813899;77;22000;-75
2022/11/30 10:58:08;;;;;;;8.93;3.20;;;;;;;0.09;60.62;101533.66;1808481;78;21043;-75
2022/11/30 11:00:34;;;;;;;8.85;3.60;;;;;;;0.12;60.76;101540.56;1792774;77;21015;-76
2022/11/30 11:03:01;;;;;;;8.35;2.90;;;;;;;0.16;60.93;101535.71;1811583;77;21022;-74
2022/11/30 11:05:29;;;;;;;6.10;2.70;;;;;;;0.22;60.97;101540.81;1819935;77;21145;-74
2022/11/30 11:08:00;;;;;;;9.40;3.75;;;;;;;0.23;60.54;101535.58;1812010;78;21831;-75
2022/11/30 11:10:36;;;;;;;9.25;3.08;;;;;;;0.22;60.49;101538.20;1819287;77;21072;-74
2022/11/30 11:13:03;;;;;;;5.62;3.15;;;;;;;0.24;60.29;101535.14;1821182;77;21073;-72
2022/11/30 11:15:34;;;;;;;10.80;3.42;;;;;;;0.20;59.91;101533.49;1766456;78;21094;-73
2022/11/30 11:18:21;;;;;;;9.83;3.27;;;;;;;0.20;59.81;101536.09;1814821;77;20977;-73
2022/11/30 11:20:47;;;;;;;8.20;3.60;;;;;;;0.20;59.90;101541.28;1731052;80;21941;-73
2022/11/30 11:23:38;;;;;;;9.18;3.83;;;;;;;0.19;59.54;101538.24;1744649;81;20941;-72
2022/11/30 11:26:18;;;;;;;10.80;3.15;;;;;;;0.14;59.66;101543.54;1756059;81;21390;-71
2022/11/30 11:28:51;;;;;;;10.00;4.70;;;;;;;0.14;59.89;101543.98;1731443;81;20965;-74
2022/11/30 11:31:47;;;;;;;7.00;3.52;;;;;;;0.15;60.22;101535.30;1740012;80;21644;-74
2022/11/30 11:34:34;;;;;;;5.90;2.95;;;;;;;0.11;59.82;101544.05;1760424;80;22034;-74
2022/11/30 11:37:09;;;;;;;6.53;3.12;;;;;;;0.07;59.99;101544.96;1754546;80;21057;-74
2022/11/30 11:39:35;;;;;;;7.62;3.20;;;;;;;0.08;60.08;101549.27;1755495;80;21379;-76
2022/11/30 11:42:03;;;;;;;4.50;3.02;;;;;;;0.08;60.16;101541.03;1751531;80;21460;-73
2022/11/30 11:44:30;;;;;;;7.83;2.87;;;;;;;0.10;60.32;101550.98;1750059;80;21020;-74
2022/11/30 11:47:02;;;;;;;9.73;3.15;;;;;;;0.10;60.23;101550.12;1747787;80;21764;-74
2022/11/30 11:49:31;;;;;;;8.03;3.83;;;;;;;0.09;60.18;101549.69;1748193;80;21021;-74
2022/11/30 11:52:12;;;;;;;6.15;3.50;;;;;;;0.08;59.99;101544.93;1750847;80;21004;-74
2022/11/30 11:54:53;;;;;;;9.35;4.12;;;;;;;0.09;59.92;101549.23;1749047;80;21032;-72
2022/11/30 11:57:22;;;;;;;10.93;3.90;;;;;;;0.05;59.86;101546.30;1743614;80;21012;-72
2022/11/30 12:00:00;;;;;;;8.08;3.75;;;;;;;0.06;60.07;101547.15;1750628;80;21968;-72
2022/11/30 12:03:06;;;;;;;10.78;3.80;;;;;;;0.07;59.91;101548.86;1749135;80;20953;-73
2022/11/30 12:05:39;;;;;;;6.87;3.75;;;;;;;0.05;59.94;101544.14;1747299;80;21463;-74
2022/11/30 12:08:24;;;;;;;10.80;5.03;;;;;;;0.06;60.17;101553.20;1703378;81;21465;-72
2022/11/30 12:11:11;;;;;;;9.48;4.55;;;;;;;0.10;60.27;101548.38;1747221;81;21020;-73
2022/11/30 12:13:40;;;;;;;11.57;3.98;;;;;;;0.18;60.55;101558.62;1726059;83;21804;-73
2022/11/30 12:16:34;;;;;;;11.45;4.60;;;;;;;0.21;60.47;101555.98;1748640;80;22416;-74
2022/11/30 12:19:20;;;;;;;11.85;4.10;;;;;;;0.23;60.26;101549.87;1755598;81;21039;-73
2022/11/30 12:22:19;;;;;;;8.50;3.90;;;;;;;0.26;59.76;101555.45;1729116;81;21083;-74
2022/11/30 12:25:20;;;;;;;8.63;3.08;;;;;;;0.26;59.46;101565.84;1744363;80;20945;-72
2022/11/30 12:27:58;;;;;;;7.40;3.00;;;;;;;0.24;59.09;101553.33;1757033;80;21853;-72
2022/11/30 12:30:55;;;;;;;5.95;2.77;;;;;;;0.25;59.25;101554.59;1728961;81;21020;-73
2022/11/30 12:33:36;;;;;;;8.13;2.83;;;;;;;0.25;58.79;101559.78;1749646;81;20988;-73
2022/11/30 12:36:25;;;;;;;7.00;3.17;;;;;;;0.25;58.66;101550.69;1750569;81;20980;-75
2022/11/30 12:39:15;;;;;;;13.15;2.98;;;;;;;0.26;58.83;101543.31;1735659;81;21249;-76
2022/11/30 12:41:52;;;;;;;14.53;3.25;;;;;;;0.30;58.86;101553.23;1749266;80;21990;-72
2022/11/30 12:44:52;;;;;;;6.60;2.90;;;;;;;0.35;58.80;101557.02;1755549;80;21034;-73
2022/11/30 12:47:33;;;;;;;10.80;3.27;;;;;;;0.37;58.57;101552.64;1734237;81;21089;-73
2022/11/30 12:50:36;;;;;;;11.40;3.00;;;;;;;0.37;58.43;101547.00;1744438;81;21470;-73
2022/11/30 12:53:28;;;;;;;10.98;2.92;;;;;;;0.40;58.35;101548.27;1735448;82;21021;-74
2022/11/30 12:56:27;;;;;;;10.40;3.20;;;;;;;0.44;58.20;101545.16;1749117;81;22033;-74
2022/11/30 12:59:12;;;;;;;11.38;4.55;;;;;;;0.44;58.01;101543.86;1734380;82;21007;-74
2022/11/30 13:02:08;;;;;;;11.22;3.75;;;;;;;0.45;58.06;101539.92;1763350;81;21025;-73
2022/11/30 13:04:49;;;;;;;7.47;3.55;;;;;;;0.45;57.78;101534.73;1746062;82;21386;-73
2022/11/30 13:07:29;;;;;;;9.75;3.58;;;;;;;0.44;57.49;101536.06;1753309;79;20967;-73
2022/11/30 13:10:16;;;;;;;10.45;4.30;;;;;;;0.42;57.42;101537.39;1771153;80;22504;-74
2022/11/30 13:12:45;;;;;;;8.63;4.20;;;;;;;0.41;57.48;101538.73;1746205;81;21350;-73
2022/11/30 13:15:18;;;;;;;15.53;3.52;;;;;;;0.41;57.43;101535.69;1730539;81;21001;-74
2022/11/30 13:17:44;;;;;;;10.07;3.17;;;;;;;0.42;57.42;101539.14;1764239;81;21020;-75
2022/11/30 13:20:32;;;;;;;11.38;4.05;;;;;;;0.41;57.20;101546.08;1750022;81;20962;-74
2022/11/30 13:23:27;;;;;;;9.45;3.10;;;;;;;0.39;56.98;101530.97;1748830;81;21063;-75
2022/11/30 13:26:25;;;;;;;10.13;2.98;;;;;;;0.38;56.76;101532.27;1762184;81;21023;-73
2022/11/30 13:29:16;;;;;;;8.00;2.83;;;;;;;0.38;56.89;101538.32;1732074;81;21070;-72
2022/11/30 13:32:11;;;;;;;9.30;2.85;;;;;;;0.38;56.81;101540.06;1768592;81;20944;-73
2022/11/30 13:34:38;;;;;;;6.87;3.05;;;;;;;0.38;56.73;101531.83;1752431;81;21073;-72
2022/11/30 13:37:14;;;;;;;8.43;3.20;;;;;;;0.37;57.05;101536.61;1763477;80;21913;-72
2022/11/30 13:39:58;;;;;;;11.50;3.40;;;;;;;0.40;57.41;101537.02;1768986;80;21025;-72
2022/11/30 13:42:38;;;;;;;11.05;2.85;;;;;;;0.41;57.58;101546.08;1785002;79;20954;-72
2022/11/30 13:45:16;;;;;;;10.40;2.80;;;;;;;0.40;57.47;101540.47;1774682;80;21049;-72
2022/11/30 13:47:50;;;;;;;10.08;3.00;;;;;;;0.41;57.64;101533.53;1781633;80;20986;-71
2022/11/30 13:50:36;;;;;;;8.73;2.52;;;;;;;0.43;57.53;101540.41;1784748;80;21860;-72
2022/11/30 13:53:07;;;;;;;23.18;13.60;;;;;;;0.43;57.26;101537.80;1750620;81;21421;-72
2022/11/30 13:56:02;;;;;;;12.37;4.72;;;;;;;0.43;57.29;101539.11;1757632;81;20965;-72
2022/11/30 13:58:29;;;;;;;11.63;3.00;;;;;;;0.46;57.27;101534.28;1752006;81;21004;-72
2022/11/30 14:01:24;;;;;;;10.55;3.15;;;;;;;0.45;56.90;101529.97;1738150;80;20999;-74
2022/11/30 14:04:31;;;;;;;7.22;2.92;;;;;;;0.44;56.89;101538.66;1723191;81;21858;-72
2022/11/30 14:07:00;;;;;;;10.13;3.25;;;;;;;0.42;56.79;101541.73;1746963;81;21115;-72
2022/11/30 14:09:48;;;;;;;9.38;3.20;;;;;;;0.42;56.80;101548.23;1747808;81;21467;-72
2022/11/30 14:12:45;;;;;;;16.90;8.70;;;;;;;0.40;56.55;101543.52;1753768;81;21008;-72
2022/11/30 14:15:43;;;;;;;10.60;4.00;;;;;;;0.40;56.71;101545.67;1721394;81;21086;-73
2022/11/30 14:18:13;;;;;;;11.70;3.30;;;;;;;0.42;56.66;101540.44;1749129;80;22005;-73
2022/11/30 14:21:03;;;;;;;9.90;3.30;;;;;;;0.42;56.53;101548.23;1742085;80;21000;-73
2022/11/30 14:23:52;;;;;;;10.53;3.52;;;;;;;0.43;56.53;101548.64;1730772;81;21062;-73
2022/11/30 14:26:33;;;;;;;9.48;2.92;;;;;;;0.42;56.49;101542.59;1753245;80;21027;-73
2022/11/30 14:29:18;;;;;;;11.20;3.27;;;;;;;0.43;56.60;101543.45;1755520;80;20968;-73
2022/11/30 14:32:12;;;;;;;10.10;3.25;;;;;;;0.44;56.58;101546.45;1745967;80;21971;-72
2022/11/30 14:34:48;;;;;;;9.73;3.37;;;;;;;0.45;56.55;101542.53;1726035;81;21491;-72
2022/11/30 14:37:28;;;;;;;9.55;3.15;;;;;;;0.46;56.57;101545.53;1751990;80;21517;-73
2022/11/30 14:39:55;;;;;;;7.35;2.90;;;;;;;0.46;56.42;101546.83;1754066;80;20937;-74
2022/11/30 14:42:26;;;;;;;6.53;3.10;;;;;;;0.47;56.12;101547.69;1755253;81;20983;-73
2022/11/30 14:44:53;;;;;;;13.72;3.00;;;;;;;0.46;56.35;101549.88;1749015;80;21845;-74
2022/11/30 14:47:30;;;;;;;5.42;2.83;;;;;;;0.47;56.19;101557.64;1758426;80;21055;-74
2022/11/30 14:50:01;;;;;;;9.95;2.90;;;;;;;0.47;56.17;101555.05;1755170;81;21383;-73
2022/11/30 14:52:58;;;;;;;7.17;2.85;;;;;;;0.47;56.14;101551.14;1752919;81;20967;-73
2022/11/30 14:55:38;;;;;;;10.05;3.20;;;;;;;0.48;55.84;101559.39;1754124;81;20964;-73
2022/11/30 14:58:44;;;;;;;10.32;3.25;;;;;;;0.48;55.90;101558.09;1751211;80;22260;-73
2022/11/30 15:01:21;;;;;;;7.33;2.92;;;;;;;0.47;56.00;101554.19;1753902;80;21060;-72
2022/11/30 15:03:48;;;;;;;10.78;2.60;;;;;;;0.47;56.07;101560.24;1749112;80;21005;-74
2022/11/30 15:06:17;;;;;;;7.90;2.85;;;;;;;0.48;56.18;101561.09;1738147;80;21122;-74
2022/11/30 15:08:52;;;;;;;9.03;3.02;;;;;;;0.47;56.14;101560.24;1746179;81;21122;-74
2022/11/30 15:11:18;;;;;;;10.18;2.62;;;;;;;0.48;56.38;101561.98;1753975;81;21979;-74
2022/11/30 15:13:55;;;;;;;8.38;2.67;;;;;;;0.48;56.33;101561.98;1747192;80;21414;-74
2022/11/30 15:16:27;;;;;;;8.83;2.72;;;;;;;0.49;56.22;101560.24;1751457;81;21079;-74
2022/11/30 15:18:55;;;;;;;12.73;2.80;;;;;;;0.50;56.44;101563.25;1753299;80;21063;-74
2022/11/30 15:21:29;;;;;;;9.50;2.15;;;;;;;0.50;56.49;101562.80;1755177;81;21059;-73
2022/11/30 15:23:58;;;;;;;8.70;2.40;;;;;;;0.51;56.37;101564.96;1755332;81;21823;-74
2022/11/30 15:26:58;;;;;;;6.92;2.10;;;;;;;0.52;56.56;101562.33;1750652;81;21020;-74
2022/11/30 15:29:30;;;;;;;6.00;2.40;;;;;;;0.51;56.41;101559.77;1734572;81;21544;-74
2022/11/30 15:31:59;;;;;;;7.58;2.40;;;;;;;0.49;56.40;101562.84;1755418;81;21116;-74
2022/11/30 15:34:41;;;;;;;8.53;2.60;;;;;;;0.49;56.61;101564.99;1755800;81;20949;-74
2022/11/30 15:37:07;;;;;;;7.47;2.70;;;;;;;0.49;56.67;101566.30;1747117;81;21885;-74
2022/11/30 15:39:34;;;;;;;7.15;2.60;;;;;;;0.50;56.84;101573.64;1755326;81;21097;-74
2022/11/30 15:42:02;;;;;;;6.28;2.52;;;;;;;0.49;56.84;101572.79;1754652;80;21055;-74
2022/11/30 15:44:39;;;;;;;7.03;2.45;;;;;;;0.52;56.77;101577.06;1725735;81;21047;-73
2022/11/30 15:47:27;;;;;;;11.03;2.55;;;;;;;0.53;56.62;101583.53;1734530;81;20968;-75
2022/11/30 15:49:54;;;;;;;8.70;3.00;;;;;;;0.53;56.31;101573.13;1754900;81;22252;-73
2022/11/30 15:52:27;;;;;;;8.35;2.77;;;;;;;0.53;56.32;101575.73;1722039;82;21483;-73
2022/11/30 15:55:01;;;;;;;10.28;3.47;;;;;;;0.54;56.47;101573.55;1749197;81;21408;-73
2022/11/30 15:57:27;;;;;;;8.70;3.20;;;;;;;0.54;56.61;101569.64;1751831;80;21054;-73
2022/11/30 16:00:17;;;;;;;8.30;3.47;;;;;;;0.55;56.71;101573.95;1744606;81;20949;-73
2022/11/30 16:02:44;;;;;;;8.90;3.00;;;;;;;0.56;56.63;101580.87;1754839;81;21961;-73
2022/11/30 16:05:21;;;;;;;8.88;3.15;;;;;;;0.57;56.63;101582.58;1753453;81;20999;-73
2022/11/30 16:07:58;;;;;;;8.83;3.25;;;;;;;0.56;56.57;101577.41;1752759;80;20961;-73
2022/11/30 16:10:30;;;;;;;8.70;3.05;;;;;;;0.56;56.70;101583.47;1747340;81;21470;-73
2022/11/30 16:12:56;;;;;;;10.05;3.12;;;;;;;0.55;56.86;101583.05;1728811;81;21169;-74
2022/11/30 16:15:27;;;;;;;7.20;2.55;;;;;;;0.53;57.03;101579.63;1754906;81;21793;-74
2022/11/30 16:17:59;;;;;;;9.78;3.45;;;;;;;0.51;56.91;101587.91;1750929;81;20996;-74
2022/11/30 16:20:26;;;;;;;8.68;2.92;;;;;;;0.49;56.71;101579.29;1755517;80;21447;-75
2022/11/30 16:22:52;;;;;;;9.10;2.98;;;;;;;0.46;56.62;101587.13;1755223;81;21479;-74
2022/11/30 16:25:23;;;;;;;6.12;2.80;;;;;;;0.44;56.75;101582.41;1755552;81;21016;-74
2022/11/30 16:27:50;;;;;;;10.93;3.20;;;;;;;0.43;56.88;101579.39;1755136;81;22564;-73
2022/11/30 16:30:19;;;;;;;6.92;2.72;;;;;;;0.39;57.01;101574.30;1747929;80;21611;-73
2022/11/30 16:32:46;;;;;;;8.68;3.20;;;;;;;0.38;57.11;101574.70;1741943;80;20949;-73
2022/11/30 16:35:23;;;;;;;7.58;2.85;;;;;;;0.35;57.08;101585.16;1755640;81;20980;-73
2022/11/30 16:37:50;;;;;;;5.55;2.87;;;;;;;0.32;56.86;101575.28;1748362;80;21099;-73
2022/11/30 16:40:17;;;;;;;8.50;2.83;;;;;;;0.31;56.87;101578.77;1755653;81;22559;-73
2022/11/30 16:42:45;;;;;;;7.35;3.20;;;;;;;0.30;57.20;101580.51;1761810;80;21425;-73
2022/11/30 16:45:21;;;;;;;7.72;3.37;;;;;;;0.27;57.51;101576.64;1731213;81;21020;-73
2022/11/30 16:47:48;;;;;;;10.88;3.80;;;;;;;0.24;57.71;101578.86;1772215;80;20986;-73
2022/11/30 16:50:17;;;;;;;11.48;3.80;;;;;;;0.21;57.90;101573.73;1746139;80;20931;-73
2022/11/30 16:52:44;;;;;;;8.53;4.40;;;;;;;0.17;58.15;101578.98;1733979;80;21806;-74
2022/11/30 16:55:16;;;;;;;11.48;4.17;;;;;;;0.15;58.36;101576.42;1767155;81;20923;-73
2022/11/30 16:57:42;;;;;;;10.55;3.52;;;;;;;0.13;58.54;101570.41;1776495;80;21046;-74
2022/11/30 17:00:12;;;;;;;8.23;3.42;;;;;;;0.11;58.64;101577.81;1756074;80;21042;-73
2022/11/30 17:02:43;;;;;;;10.32;3.35;;;;;;;0.09;58.79;101572.62;1758320;81;21329;-73
2022/11/30 17:05:13;;;;;;;8.93;2.80;;;;;;;0.06;58.95;101564.03;1739669;81;21528;-73
2022/11/30 17:07:40;;;;;;;9.65;3.02;;;;;;;0.03;59.07;101561.50;1751408;81;21435;-73
2022/11/30 17:10:08;;;;;;;5.85;2.67;;;;;;;-0.01;59.08;101560.67;1737335;81;20980;-73
2022/11/30 17:12:34;;;;;;;5.50;2.83;;;;;;;-0.04;59.19;101562.89;1746541;81;20956;-74
2022/11/30 17:15:02;;;;;;;7.40;2.83;;;;;;;-0.06;59.20;101562.06;1750496;80;21088;-74
2022/11/30 17:17:29;;;;;;;7.28;2.47;;;;;;;-0.07;59.39;101562.09;1766570;81;21586;-74
2022/11/30 17:19:55;;;;;;;4.78;2.80;;;;;;;-0.10;59.60;101562.98;1737169;80;21390;-73
2022/11/30 17:22:22;;;;;;;10.50;2.87;;;;;;;-0.12;59.80;101562.59;1773307;80;21468;-73
2022/11/30 17:24:48;;;;;;;6.37;2.90;;;;;;;-0.15;59.93;101566.55;1758398;81;20875;-73
2022/11/30 17:27:15;;;;;;;8.63;2.77;;;;;;;-0.15;59.98;101564.81;1750739;82;20966;-73
2022/11/30 17:29:42;;;;;;;6.83;3.10;;;;;;;-0.15;59.89;101562.66;1762022;81;21832;-73
2022/11/30 17:32:09;;;;;;;9.80;3.20;;;;;;;-0.15;59.95;101562.21;1752308;81;21088;-73
2022/11/30 17:34:36;;;;;;;7.78;3.12;;;;;;;-0.15;59.94;101562.66;1754871;81;20969;-73
2022/11/30 17:37:02;;;;;;;8.40;2.95;;;;;;;-0.16;59.94;101566.99;1781992;80;21530;-73
2022/11/30 17:39:29;;;;;;;8.53;2.90;;;;;;;-0.16;60.03;101568.73;1782980;80;21447;-73
2022/11/30 17:41:56;;;;;;;6.87;3.30;;;;;;;-0.18;60.12;101560.97;1772132;80;21954;-73
2022/11/30 17:44:23;;;;;;;8.10;3.20;;;;;;;-0.16;60.12;101568.30;1782788;79;21448;-73
2022/11/30 17:46:50;;;;;;;8.23;3.05;;;;;;;-0.17;60.19;101570.47;1761344;80;20994;-73
2022/11/30 17:49:16;;;;;;;7.20;3.12;;;;;;;-0.16;60.17;101569.59;1770924;80;20998;-74
2022/11/30 17:51:43;;;;;;;6.97;3.50;;;;;;;-0.16;60.25;101571.33;1762602;81;21040;-72
2022/11/30 17:54:10;;;;;;;6.50;3.25;;;;;;;-0.16;60.35;101563.54;1744842;82;21844;-72
2022/11/30 17:56:37;;;;;;;9.28;3.45;;;;;;;-0.18;60.43;101569.20;1749362;80;20907;-72
2022/11/30 17:59:03;;;;;;;6.10;3.77;;;;;;;-0.19;60.50;101570.06;1751478;80;21488;-73
2022/11/30 18:01:30;;;;;;;9.48;3.83;;;;;;;-0.22;60.54;101565.78;1724824;81;20965;-71
2022/11/30 18:03:57;;;;;;;7.72;4.72;;;;;;;-0.22;60.65;101566.22;1753467;80;21127;-70
2022/11/30 18:06:24;;;;;;;8.43;5.15;;;;;;;-0.25;60.70;101564.55;1743390;80;22441;-70
2022/11/30 18:08:51;;;;;;;10.25;5.17;;;;;;;-0.26;60.80;101563.27;1754375;80;21011;-75
2022/11/30 18:11:21;;;;;;;11.22;5.03;;;;;;;-0.27;60.84;101565.02;1783304;79;21438;-74
2022/11/30 18:13:50;;;;;;;8.65;4.17;;;;;;;-0.27;60.91;101571.95;1781219;80;21515;-74
2022/11/30 18:16:25;;;;;;;7.17;4.08;;;;;;;-0.29;60.94;101569.34;1771506;80;21044;-70
2022/11/30 18:18:53;;;;;;;6.60;3.50;;;;;;;-0.30;61.00;101567.63;1751247;80;22783;-70
2022/11/30 18:21:21;;;;;;;8.80;3.27;;;;;;;-0.29;61.03;101571.94;1725370;81;21035;-72
2022/11/30 18:23:48;;;;;;;13.43;3.02;;;;;;;-0.29;61.08;101561.56;1744897;81;21035;-75
2022/11/30 18:26:17;;;;;;;5.90;3.02;;;;;;;-0.28;61.14;101561.15;1754564;81;22214;-70
2022/11/30 18:28:44;;;;;;;5.30;2.80;;;;;;;-0.28;61.15;101568.49;1748236;80;21044;-73
2022/11/30 18:31:11;;;;;;;5.78;3.10;;;;;;;-0.27;61.18;101570.20;1753187;81;21958;-71
2022/11/30 18:33:38;;;;;;;7.95;3.20;;;;;;;-0.26;61.15;101569.77;1744247;81;21215;-74
2022/11/30 18:36:06;;;;;;;6.10;3.02;;;;;;;-0.25;61.19;101571.03;1754730;80;21475;-72
2022/11/30 18:38:33;;;;;;;7.37;2.62;;;;;;;-0.25;61.19;101573.63;1774934;80;21051;-71
2022/11/30 18:41:00;;;;;;;5.47;2.58;;;;;;;-0.25;61.21;101571.03;1746361;81;21154;-73
2022/11/30 18:43:29;;;;;;;6.03;2.42;;;;;;;-0.24;61.22;101568.84;1778164;80;22566;-71
2022/11/30 18:46:04;;;;;;;6.80;2.42;;;;;;;-0.23;61.18;101571.00;1726958;81;21838;-71
2022/11/30 18:48:31;;;;;;;14.87;2.50;;;;;;;-0.24;61.34;101571.45;1769847;79;21026;-71
2022/11/30 18:50:58;;;;;;;8.15;2.77;;;;;;;-0.24;61.41;101572.74;1748009;81;21066;-69
2022/11/30 18:53:25;;;;;;;7.95;2.67;;;;;;;-0.25;61.51;101572.77;1715589;81;21513;-69
2022/11/30 18:55:52;;;;;;;6.92;3.17;;;;;;;-0.26;61.70;101574.52;1767354;81;21841;-72
2022/11/30 18:58:19;;;;;;;8.10;3.33;;;;;;;-0.30;61.73;101579.31;1753582;79;21122;-70
2022/11/30 19:00:46;;;;;;;7.83;3.75;;;;;;;-0.32;61.82;101583.68;1762395;79;21080;-69
2022/11/30 19:03:14;;;;;;;10.15;4.40;;;;;;;-0.35;61.87;101573.36;1753917;79;21585;-70
2022/11/30 19:05:41;;;;;;;13.72;5.35;;;;;;;-0.38;61.87;101578.61;1752281;80;21083;-70
2022/11/30 19:08:11;;;;;;;10.23;5.10;;;;;;;-0.39;61.86;101585.94;1778073;79;22567;-70
2022/11/30 19:10:39;;;;;;;13.38;7.08;;;;;;;-0.41;61.86;101583.38;1761976;79;21056;-70
2022/11/30 19:13:11;;;;;;;15.07;7.63;;;;;;;-0.43;61.78;101582.55;1766276;81;21082;-71
2022/11/30 19:15:39;;;;;;;14.07;6.83;;;;;;;-0.44;61.81;101586.03;1774519;80;22277;-70
2022/11/30 19:18:06;;;;;;;8.50;5.83;;;;;;;-0.42;61.82;101589.45;1782836;79;21051;-74
2022/11/30 19:20:39;;;;;;;12.15;6.20;;;;;;;-0.43;61.84;101585.59;1755236;81;21928;-70
2022/11/30 19:23:07;;;;;;;10.72;5.05;;;;;;;-0.44;61.96;101587.33;1750971;81;21074;-76
2022/11/30 19:25:34;;;;;;;8.18;4.17;;;;;;;-0.44;61.98;101589.92;1768710;80;21115;-71
2022/11/30 19:28:01;;;;;;;7.30;2.90;;;;;;;-0.44;62.00;101587.77;1756464;81;21026;-72
2022/11/30 19:30:27;;;;;;;7.47;3.17;;;;;;;-0.45;62.01;101590.80;1759022;81;21035;-72
2022/11/30 19:32:54;;;;;;;7.00;3.50;;;;;;;-0.45;62.01;101594.70;1766365;80;22553;-71
2022/11/30 19:35:21;;;;;;;6.95;3.60;;;;;;;-0.43;61.89;101597.27;1762740;80;20942;-71
2022/11/30 19:37:53;;;;;;;5.92;2.95;;;;;;;-0.42;61.92;101596.37;1757659;81;21021;-72